Pagrindinis puslapis
METAR-TAF:

METAR-TAF

Oro uostai :

Valensija, Venesuela

platuma: 10-10N, ilguma: 067-56W, Aukštis: 430 m

Dabartinis oras

Ataskaita buvo paskelbta 2 valandos ir 52 minutes, ne 04:02 UTC
Temperatūra
Slėgis

METAR: SVVA 080402Z AUTO NIL

Laikas: 02:54 (06:54 UTC)

Prognozė

Ataskaita buvo paskelbta 9 valandos ir 43 minutes, ne 21:11 UTC
Prognozė galioja nuo 08 metu 00 UTC su 09 metu 00 UTC
Vėjas 7 kt iš Pietų/Pietvakarių
Matomumas: 8000 m
Mažai debesys ne aukštis 1300 ft, Liūtiniai kamuoliniai debesys.
Apsiniaukę ne aukštis 1600 ft
perkūnija, lietus
Tapsmas
nuo 07 metu 03 UTC su 07 metu 07 UTC
Vėjas 4 kt iš Vakarų/Pietvakarių
Matomumas 10 km arba daugiau
Apsiniaukę ne aukštis 1600 ft
dulksna
Tapsmas
nuo 08 metu 08 UTC su 08 metu 12 UTC
Vėjas 4 kt iš Vakarų/Šiaurės Vakarų
Su prošvaistėmis ne aukštis 1600 ft

TAF: SVVA 072111Z 0800/0900 21007KT 8000 +TSRA FEW013CB OVC016 TX30/0819Z TN20/0808Z BECMG 0703/0707 25004KT 9999 DZ OVC016 BECMG 0808/0812 29004KT BKN016

Orai ataskaitas ir orų prognozės (METAR, TAF).

turimą stotys yra geltonos ir raudonos taškus žemėlapyje.

Perkelti pele per norėdami pamatyti stoties vardą.

Tada spustelėkite, norėdami matyti oro stebėjimo ir prognozės.

Norėdami pakeisti žemėlapį: spustelėkite ant žalios mygtukų su juodo kryžiaus žemyn,; žalią mygtuką su brūkšneliu, jei norite nutolinti; arba žalių rodyklių gretimoms žemėlapius.


METAR-TAF: